Time;durP1;ratioP1;P1;durP2;ratioP2;P2;SDS_P1;SDS_P2;PMS_P1;PMS_P2;Temp;Humidity;BMP_temperature;BMP_pressure;BME280_temperature;BME280_humidity;BME280_pressure;Samples;Min_cycle;Max_cycle;Signal;HPM_P1;HPM_P2
2022/11/28 00:00:11;;;;;;;12.73;10.83;;;5.80;99.90;;;;;;4994919;28;20185;-69
2022/11/28 00:02:37;;;;;;;12.77;10.83;;;5.70;99.90;;;;;;4993896;28;20204;-69
2022/11/28 00:05:03;;;;;;;11.50;10.33;;;5.70;99.90;;;;;;4994412;28;20457;-68
2022/11/28 00:07:28;;;;;;;13.23;11.90;;;5.80;99.90;;;;;;4994032;28;20186;-68
2022/11/28 00:09:54;;;;;;;13.97;11.47;;;5.70;99.90;;;;;;4990974;28;20187;-69
2022/11/28 00:12:20;;;;;;;13.10;11.03;;;5.70;99.90;;;;;;4999234;28;20212;-69
2022/11/28 00:14:45;;;;;;;12.63;10.33;;;5.60;99.90;;;;;;4994072;28;20192;-68
2022/11/28 00:17:11;;;;;;;12.10;10.87;;;5.50;99.90;;;;;;5008421;28;20274;-69
2022/11/28 00:19:36;;;;;;;13.00;11.40;;;5.60;99.90;;;;;;4991515;28;20363;-68
2022/11/28 00:22:02;;;;;;;12.93;11.20;;;5.70;99.90;;;;;;5000080;28;20198;-68
2022/11/28 00:24:28;;;;;;;13.47;12.03;;;5.80;99.90;;;;;;4989751;28;20211;-69
2022/11/28 00:26:53;;;;;;;12.53;10.87;;;5.70;99.90;;;;;;5002544;28;20626;-68
2022/11/28 00:29:19;;;;;;;12.90;11.20;;;5.70;99.90;;;;;;4995707;28;20210;-68
2022/11/28 00:31:44;;;;;;;14.07;11.93;;;5.80;99.90;;;;;;5004238;28;20226;-69
2022/11/28 00:34:12;;;;;;;15.33;12.40;;;5.90;99.90;;;;;;5000706;28;20238;-69
2022/11/28 00:36:38;;;;;;;12.40;10.53;;;5.90;99.90;;;;;;4994910;28;20195;-68
2022/11/28 00:39:04;;;;;;;13.73;11.60;;;5.90;99.90;;;;;;5000692;28;21006;-68
2022/11/28 00:41:32;;;;;;;12.37;10.43;;;5.90;99.90;;;;;;4996733;28;20204;-68
2022/11/28 00:43:58;;;;;;;13.17;11.43;;;5.90;99.90;;;;;;4999702;28;20445;-68
2022/11/28 00:46:24;;;;;;;12.17;10.30;;;5.90;99.90;;;;;;5000872;28;20442;-68
2022/11/28 00:48:50;;;;;;;12.20;10.70;;;5.90;99.90;;;;;;5003780;28;20448;-68
2022/11/28 00:51:21;;;;;;;11.40;10.17;;;5.90;99.90;;;;;;4994945;28;20562;-68
2022/11/28 00:53:48;;;;;;;11.90;10.80;;;5.80;99.90;;;;;;4991308;28;20862;-68
2022/11/28 00:56:20;;;;;;;11.63;10.43;;;5.90;99.90;;;;;;4997528;28;20956;-68
2022/11/28 00:58:48;;;;;;;17.40;10.73;;;5.90;99.90;;;;;;4991981;28;20516;-68
2022/11/28 01:01:17;;;;;;;12.33;11.03;;;5.90;99.90;;;;;;4993323;28;20466;-68
2022/11/28 01:03:43;;;;;;;11.63;10.50;;;5.90;99.90;;;;;;4992144;28;20492;-68
2022/11/28 01:06:09;;;;;;;14.13;12.70;;;5.90;99.90;;;;;;4998079;28;20541;-69
2022/11/28 01:08:36;;;;;;;10.67;9.63;;;5.90;99.90;;;;;;4992714;28;20538;-68
2022/11/28 01:11:02;;;;;;;10.60;9.50;;;6.00;99.90;;;;;;5000292;28;20446;-69
2022/11/28 01:13:27;;;;;;;14.90;10.10;;;6.00;99.90;;;;;;5000287;28;20446;-68
2022/11/28 01:15:53;;;;;;;11.83;10.63;;;6.00;99.90;;;;;;5000963;28;20461;-69
2022/11/28 01:18:19;;;;;;;11.83;10.73;;;6.00;99.90;;;;;;4988541;28;20515;-68
2022/11/28 01:20:44;;;;;;;12.50;9.77;;;6.00;99.90;;;;;;4991071;28;20797;-69
2022/11/28 01:23:10;;;;;;;11.37;9.93;;;5.90;99.90;;;;;;5002830;28;20563;-68
2022/11/28 01:25:35;;;;;;;11.70;10.37;;;5.80;99.90;;;;;;4998477;28;20187;-68
2022/11/28 01:28:01;;;;;;;10.80;9.70;;;5.80;99.90;;;;;;4997187;28;20698;-68
2022/11/28 01:30:26;;;;;;;11.87;10.10;;;5.70;99.90;;;;;;4998144;28;20776;-69
2022/11/28 01:32:52;;;;;;;10.03;9.00;;;5.70;99.90;;;;;;5003195;28;20589;-69
2022/11/28 01:35:18;;;;;;;10.40;9.30;;;5.70;99.90;;;;;;5002790;28;20175;-69
2022/11/28 01:37:43;;;;;;;9.93;8.93;;;5.70;99.90;;;;;;4998810;28;22368;-68
2022/11/28 01:40:11;;;;;;;11.07;9.00;;;5.70;99.90;;;;;;4999664;28;20184;-68
2022/11/28 01:42:37;;;;;;;9.70;8.60;;;5.60;99.90;;;;;;4984577;28;20199;-68
2022/11/28 01:45:22;;;;;;;10.10;9.10;;;5.70;99.90;;;;;;4993022;28;20492;-68
2022/11/28 01:47:50;;;;;;;10.33;8.80;;;5.70;99.90;;;;;;4992750;28;20441;-68
2022/11/28 01:50:16;;;;;;;9.53;8.50;;;5.80;99.90;;;;;;4992871;28;20526;-69
2022/11/28 01:52:44;;;;;;;13.67;10.50;;;5.80;99.90;;;;;;4996008;28;20549;-68
2022/11/28 01:55:14;;;;;;;11.57;9.80;;;5.70;99.90;;;;;;4996982;28;20198;-69
2022/11/28 01:57:40;;;;;;;10.97;9.83;;;5.60;99.90;;;;;;4989252;28;20438;-69
2022/11/28 02:00:12;;;;;;;11.27;10.03;;;5.60;99.90;;;;;;4986581;28;20430;-68
2022/11/28 02:02:40;;;;;;;11.37;10.17;;;5.60;99.90;;;;;;4993527;28;20808;-69
2022/11/28 02:05:06;;;;;;;13.13;10.00;;;5.60;99.90;;;;;;4990916;28;20953;-69
2022/11/28 02:07:33;;;;;;;10.67;8.90;;;5.60;99.90;;;;;;4988644;28;20524;-69
2022/11/28 02:10:01;;;;;;;10.63;9.10;;;5.60;99.90;;;;;;4988870;28;20449;-69
2022/11/28 02:12:38;;;;;;;11.10;9.80;;;5.70;99.90;;;;;;4992912;28;20987;-68
2022/11/28 02:15:18;;;;;;;11.67;9.87;;;5.70;99.90;;;;;;4994442;28;20481;-69
2022/11/28 02:18:12;;;;;;;11.67;10.43;;;5.70;99.90;;;;;;4999679;28;20519;-68
2022/11/28 02:20:52;;;;;;;11.50;10.30;;;5.60;99.90;;;;;;4973240;28;20443;-69
2022/11/28 02:23:39;;;;;;;11.83;10.10;;;5.40;99.90;;;;;;5000205;28;20460;-69
2022/11/28 02:26:23;;;;;;;13.10;10.07;;;5.40;99.90;;;;;;4995374;28;20530;-68
2022/11/28 02:29:02;;;;;;;11.60;10.40;;;5.30;99.90;;;;;;4993272;28;20942;-69
2022/11/28 02:31:32;;;;;;;10.53;9.53;;;5.40;99.90;;;;;;5004175;28;20457;-68
2022/11/28 02:34:03;;;;;;;11.30;9.63;;;5.50;99.90;;;;;;4994302;28;20457;-69
2022/11/28 02:36:45;;;;;;;10.53;9.43;;;5.50;99.90;;;;;;4987965;28;20465;-69
2022/11/28 02:39:45;;;;;;;10.77;9.70;;;5.60;99.90;;;;;;4994520;28;20520;-69
2022/11/28 02:42:52;;;;;;;9.60;8.60;;;5.50;99.90;;;;;;4993889;28;21057;-69
2022/11/28 02:45:34;;;;;;;14.03;9.87;;;5.40;99.90;;;;;;4972383;28;20442;-69
2022/11/28 02:48:11;;;;;;;10.90;9.43;;;5.30;99.90;;;;;;4997296;28;20604;-69
2022/11/28 02:50:51;;;;;;;11.53;10.37;;;5.30;99.90;;;;;;5003220;28;20438;-68
2022/11/28 02:53:21;;;;;;;16.70;11.50;;;5.30;99.90;;;;;;4997052;28;20855;-69
2022/11/28 02:55:48;;;;;;;12.87;10.30;;;5.20;99.90;;;;;;4994243;28;20838;-68
2022/11/28 02:58:14;;;;;;;12.40;10.80;;;5.20;99.90;;;;;;4990927;28;20528;-69
2022/11/28 03:00:43;;;;;;;12.10;10.17;;;5.20;99.90;;;;;;4992756;28;20827;-68
2022/11/28 03:03:46;;;;;;;13.27;11.83;;;5.30;99.90;;;;;;4994667;28;20312;-69
2022/11/28 03:06:41;;;;;;;12.03;9.70;;;5.30;99.90;;;;;;4989928;28;20521;-69
2022/11/28 03:09:44;;;;;;;13.20;9.97;;;5.30;99.90;;;;;;4976218;28;20454;-69
2022/11/28 03:12:27;;;;;;;12.67;11.10;;;5.30;99.90;;;;;;4933451;29;20488;-69
2022/11/28 03:14:54;;;;;;;12.90;10.37;;;5.20;99.90;;;;;;5003469;28;20468;-69
2022/11/28 03:17:43;;;;;;;11.50;10.07;;;5.20;99.90;;;;;;5001247;28;20463;-68
2022/11/28 03:20:47;;;;;;;15.47;11.50;;;5.20;99.90;;;;;;4999815;28;20437;-69
2022/11/28 03:23:25;;;;;;;13.77;11.60;;;5.10;99.90;;;;;;5005106;28;20450;-68
2022/11/28 03:26:04;;;;;;;14.77;11.10;;;5.20;99.90;;;;;;4992128;28;20443;-68
2022/11/28 03:28:34;;;;;;;12.40;11.10;;;5.10;99.90;;;;;;4996245;28;20442;-69
2022/11/28 03:31:06;;;;;;;15.53;12.23;;;5.10;99.90;;;;;;4997190;28;20469;-69
2022/11/28 03:33:37;;;;;;;15.77;10.80;;;5.20;99.90;;;;;;5012459;28;20437;-69
2022/11/28 03:36:28;;;;;;;13.37;11.17;;;5.20;99.90;;;;;;4998359;28;20472;-68
2022/11/28 03:39:01;;;;;;;11.60;10.40;;;5.30;99.90;;;;;;4982830;28;20995;-68
2022/11/28 03:41:41;;;;;;;9.90;8.83;;;5.30;99.90;;;;;;5000672;28;20499;-69
2022/11/28 03:44:13;;;;;;;13.70;11.30;;;5.40;99.90;;;;;;5006801;28;20436;-68
2022/11/28 03:46:45;;;;;;;17.80;12.10;;;5.40;99.90;;;;;;5000526;28;22512;-69
2022/11/28 03:49:15;;;;;;;11.07;9.77;;;5.40;99.90;;;;;;4999862;28;20443;-68
2022/11/28 03:51:56;;;;;;;10.53;9.30;;;5.50;99.90;;;;;;4987475;28;20458;-67
2022/11/28 03:54:39;;;;;;;10.40;9.40;;;5.50;99.90;;;;;;4999235;28;20434;-68
2022/11/28 03:57:21;;;;;;;13.97;9.80;;;5.40;99.90;;;;;;4987330;28;20454;-68
2022/11/28 03:59:50;;;;;;;12.03;10.80;;;5.20;99.90;;;;;;5001229;28;20446;-68
2022/11/28 04:02:33;;;;;;;16.70;10.03;;;5.10;99.90;;;;;;5004895;28;20525;-68
2022/11/28 04:05:17;;;;;;;10.97;9.73;;;5.10;99.90;;;;;;4984329;28;20850;-68
2022/11/28 04:08:04;;;;;;;10.13;8.90;;;5.10;99.90;;;;;;4998674;28;20936;-69
2022/11/28 04:10:42;;;;;;;12.30;9.87;;;5.10;99.90;;;;;;4989853;28;20526;-68
2022/11/28 04:13:35;;;;;;;11.30;10.10;;;5.10;99.90;;;;;;5004275;28;20484;-68
2022/11/28 04:16:17;;;;;;;10.90;9.83;;;5.20;99.90;;;;;;4996339;28;20484;-68
2022/11/28 04:19:07;;;;;;;10.80;9.67;;;5.20;99.90;;;;;;4998518;28;20964;-67
2022/11/28 04:21:40;;;;;;;12.47;9.03;;;5.20;99.90;;;;;;5006308;28;20508;-68
2022/11/28 04:24:13;;;;;;;13.23;10.70;;;5.30;99.90;;;;;;4995647;28;20438;-68
2022/11/28 04:26:46;;;;;;;10.40;8.50;;;5.40;99.90;;;;;;4999043;28;20446;-68
2022/11/28 04:29:16;;;;;;;10.87;9.37;;;5.50;99.90;;;;;;4990499;28;20513;-68
2022/11/28 04:31:44;;;;;;;9.73;8.40;;;5.40;99.90;;;;;;5000007;28;20466;-69
2022/11/28 04:34:15;;;;;;;11.13;10.03;;;5.40;99.90;;;;;;4993497;28;20549;-69
2022/11/28 04:36:43;;;;;;;10.17;9.17;;;5.50;99.90;;;;;;4993009;28;20459;-68
2022/11/28 04:39:13;;;;;;;10.47;8.97;;;5.50;99.90;;;;;;4992972;28;20863;-69
2022/11/28 04:42:11;;;;;;;8.13;7.17;;;5.50;99.90;;;;;;4993294;28;20447;-69
2022/11/28 04:44:55;;;;;;;9.63;7.50;;;5.50;99.90;;;;;;4983380;28;20971;-68
2022/11/28 04:47:22;;;;;;;7.80;7.07;;;5.50;99.90;;;;;;4992260;28;20459;-68
2022/11/28 04:49:48;;;;;;;8.57;7.67;;;5.50;99.90;;;;;;4999670;28;20445;-69
2022/11/28 04:52:34;;;;;;;9.37;7.83;;;5.50;99.90;;;;;;4992375;28;20461;-69
2022/11/28 04:55:33;;;;;;;10.77;7.23;;;5.50;99.90;;;;;;4989529;28;20278;-69
2022/11/28 04:58:15;;;;;;;7.93;7.13;;;5.60;99.90;;;;;;4988890;28;20440;-68
2022/11/28 05:00:42;;;;;;;9.07;6.50;;;5.60;99.90;;;;;;4991485;28;20962;-68
2022/11/28 05:03:09;;;;;;;8.03;7.10;;;5.60;99.90;;;;;;4982876;28;20659;-69
2022/11/28 05:05:47;;;;;;;9.40;7.30;;;5.60;99.90;;;;;;4985124;28;20443;-68
2022/11/28 05:08:13;;;;;;;10.50;6.93;;;5.60;99.90;;;;;;4986622;28;20442;-69
2022/11/28 05:10:39;;;;;;;10.90;7.70;;;5.60;99.90;;;;;;4991941;28;20434;-69
2022/11/28 05:13:05;;;;;;;7.97;7.17;;;5.50;99.90;;;;;;4986892;28;20196;-68
2022/11/28 05:15:30;;;;;;;9.43;6.80;;;5.50;99.90;;;;;;4992290;28;20951;-69
2022/11/28 05:17:56;;;;;;;10.47;7.37;;;5.50;99.90;;;;;;4993016;28;20177;-68
2022/11/28 05:20:22;;;;;;;9.83;7.30;;;5.40;99.90;;;;;;4992047;28;20708;-69
2022/11/28 05:22:47;;;;;;;8.93;8.03;;;5.40;99.90;;;;;;4991198;28;20211;-69
2022/11/28 05:25:13;;;;;;;10.10;8.03;;;5.40;99.90;;;;;;4991372;28;20208;-68
2022/11/28 05:27:38;;;;;;;9.40;7.70;;;5.30;99.90;;;;;;4992107;28;20560;-69
2022/11/28 05:30:05;;;;;;;8.97;7.97;;;5.30;99.90;;;;;;4987549;28;20184;-68
2022/11/28 05:32:31;;;;;;;8.77;7.97;;;5.30;99.90;;;;;;4989828;28;20220;-68
2022/11/28 05:34:57;;;;;;;9.73;8.73;;;5.30;99.90;;;;;;4991833;28;20842;-69
2022/11/28 05:37:24;;;;;;;9.77;7.63;;;5.30;99.90;;;;;;4990688;28;20554;-68
2022/11/28 05:39:50;;;;;;;9.00;8.10;;;5.30;99.90;;;;;;4982960;28;20454;-69
2022/11/28 05:42:16;;;;;;;10.10;9.03;;;5.30;99.90;;;;;;4989455;28;20489;-69
2022/11/28 05:44:41;;;;;;;11.67;7.90;;;5.20;99.90;;;;;;4990234;28;20438;-69
2022/11/28 05:47:07;;;;;;;8.73;7.93;;;5.20;99.90;;;;;;4992731;28;20171;-69
2022/11/28 05:49:33;;;;;;;8.20;7.30;;;5.20;99.90;;;;;;4986671;28;20626;-69
2022/11/28 05:51:58;;;;;;;9.97;7.93;;;5.20;99.90;;;;;;4989522;28;20240;-69
2022/11/28 05:54:24;;;;;;;11.10;9.80;;;5.20;99.90;;;;;;4989129;28;20194;-69
2022/11/28 05:56:50;;;;;;;9.10;6.90;;;5.20;99.90;;;;;;5006953;28;20293;-68
2022/11/28 05:59:15;;;;;;;9.17;7.10;;;5.20;99.90;;;;;;4985125;28;20206;-68
2022/11/28 06:01:41;;;;;;;12.00;8.10;;;5.20;99.90;;;;;;4992106;28;20299;-69
2022/11/28 06:04:06;;;;;;;10.40;7.40;;;5.20;99.90;;;;;;4998906;28;20176;-69
2022/11/28 06:06:35;;;;;;;11.80;7.50;;;5.30;99.90;;;;;;4991236;28;20222;-69
2022/11/28 06:09:01;;;;;;;9.30;7.67;;;5.30;99.90;;;;;;4987768;28;20246;-69
2022/11/28 06:11:29;;;;;;;9.67;7.93;;;5.30;99.90;;;;;;4988602;28;20507;-68
2022/11/28 06:13:55;;;;;;;7.70;6.80;;;5.30;99.90;;;;;;4988431;28;20572;-68
2022/11/28 06:16:23;;;;;;;7.93;7.20;;;5.30;99.90;;;;;;4987144;28;20476;-69
2022/11/28 06:18:53;;;;;;;11.73;7.67;;;5.30;99.90;;;;;;4988978;28;20461;-69
2022/11/28 06:21:19;;;;;;;7.20;6.50;;;5.40;99.90;;;;;;4984596;28;20812;-69
2022/11/28 06:23:44;;;;;;;7.47;6.73;;;5.40;99.90;;;;;;4991022;28;20434;-69
2022/11/28 06:26:13;;;;;;;11.70;7.40;;;5.50;99.90;;;;;;5001018;28;20563;-69
2022/11/28 06:28:39;;;;;;;13.03;9.27;;;5.50;99.90;;;;;;4991494;28;20179;-69
2022/11/28 06:31:12;;;;;;;10.70;7.80;;;5.50;99.90;;;;;;5007723;28;20491;-68
2022/11/28 06:33:37;;;;;;;13.00;8.40;;;5.50;99.90;;;;;;4993628;28;20936;-69
2022/11/28 06:36:04;;;;;;;7.10;6.40;;;5.50;99.90;;;;;;5004164;28;20457;-68
2022/11/28 06:38:30;;;;;;;14.30;7.80;;;5.50;99.90;;;;;;4988209;28;20182;-68
2022/11/28 06:41:02;;;;;;;9.43;7.10;;;5.50;99.90;;;;;;5008051;28;20425;-69
2022/11/28 06:43:28;;;;;;;8.40;7.50;;;5.60;99.90;;;;;;4993600;28;21010;-69
2022/11/28 06:45:54;;;;;;;9.60;7.10;;;5.60;99.90;;;;;;4990862;28;20460;-67
2022/11/28 06:48:20;;;;;;;11.23;6.83;;;5.60;99.90;;;;;;4990703;28;20952;-69
2022/11/28 06:50:46;;;;;;;8.97;6.70;;;5.70;99.90;;;;;;5007594;28;20186;-69
2022/11/28 06:53:12;;;;;;;8.97;6.77;;;5.70;99.90;;;;;;4995785;28;20454;-69
2022/11/28 06:55:37;;;;;;;9.63;5.90;;;5.70;99.90;;;;;;4996639;28;20438;-68
2022/11/28 06:58:03;;;;;;;8.00;7.30;;;5.80;99.90;;;;;;4992933;28;20461;-69
2022/11/28 07:00:29;;;;;;;9.17;6.20;;;5.80;99.90;;;;;;4989788;28;20195;-69
2022/11/28 07:02:54;;;;;;;7.40;5.97;;;5.80;99.90;;;;;;4997733;28;20203;-68
2022/11/28 07:05:21;;;;;;;11.43;6.77;;;5.90;99.90;;;;;;4989617;28;20183;-69
2022/11/28 07:07:47;;;;;;;7.57;6.20;;;5.90;99.90;;;;;;4994041;28;20179;-69
2022/11/28 07:10:13;;;;;;;10.90;7.00;;;5.90;99.90;;;;;;4996855;28;20593;-69
2022/11/28 07:12:39;;;;;;;11.27;6.20;;;5.90;99.90;;;;;;4978967;28;20487;-68
2022/11/28 07:15:08;;;;;;;8.07;5.80;;;5.90;99.90;;;;;;4987126;28;20457;-69
2022/11/28 07:17:34;;;;;;;7.40;5.30;;;5.90;99.90;;;;;;4990518;28;20607;-68
2022/11/28 07:20:00;;;;;;;12.13;6.10;;;5.90;99.90;;;;;;4986910;28;20489;-69
2022/11/28 07:22:25;;;;;;;6.70;5.90;;;5.90;99.90;;;;;;4991523;28;20490;-69
2022/11/28 07:24:51;;;;;;;6.40;5.17;;;6.00;99.90;;;;;;4977794;28;20191;-69
2022/11/28 07:27:17;;;;;;;9.27;6.37;;;6.10;99.90;;;;;;4987796;28;20626;-69
2022/11/28 07:29:42;;;;;;;5.07;4.57;;;6.10;99.90;;;;;;4990372;28;20187;-69
2022/11/28 07:32:08;;;;;;;9.37;5.00;;;6.20;99.90;;;;;;4987557;28;20819;-68
2022/11/28 07:34:34;;;;;;;6.67;5.57;;;6.30;99.90;;;;;;4986922;28;20207;-69
2022/11/28 07:36:59;;;;;;;10.27;5.37;;;6.30;99.90;;;;;;4983861;28;20235;-69
2022/11/28 07:39:25;;;;;;;14.07;5.90;;;6.30;99.90;;;;;;4988987;28;20657;-68
2022/11/28 07:41:51;;;;;;;10.17;6.57;;;6.30;99.90;;;;;;4988927;28;20227;-68
2022/11/28 07:44:16;;;;;;;10.33;5.30;;;6.30;99.90;;;;;;4992311;28;20223;-68
2022/11/28 07:46:45;;;;;;;6.70;5.77;;;6.40;99.90;;;;;;4992073;28;20188;-68
2022/11/28 07:49:13;;;;;;;9.20;6.33;;;6.40;99.90;;;;;;4998786;28;20184;-67
2022/11/28 07:51:39;;;;;;;10.30;6.30;;;6.50;99.90;;;;;;4992128;28;20830;-67
2022/11/28 07:54:05;;;;;;;17.87;9.30;;;6.60;99.90;;;;;;4997917;28;20443;-67
2022/11/28 07:56:34;;;;;;;11.77;8.90;;;6.50;99.90;;;;;;4993873;28;20468;-68
2022/11/28 07:59:00;;;;;;;8.23;5.80;;;6.60;99.90;;;;;;4992284;28;20433;-67
2022/11/28 08:01:29;;;;;;;5.83;5.20;;;6.60;99.90;;;;;;4996188;28;20486;-68
2022/11/28 08:03:55;;;;;;;8.23;6.47;;;6.60;99.90;;;;;;4987718;28;20469;-67
2022/11/28 08:06:26;;;;;;;6.13;5.53;;;6.60;99.90;;;;;;4997414;28;20536;-68
2022/11/28 08:08:52;;;;;;;6.80;5.60;;;6.70;99.90;;;;;;5002797;28;20426;-68
2022/11/28 08:11:20;;;;;;;7.30;5.53;;;6.70;99.90;;;;;;4995375;28;20454;-68
2022/11/28 08:13:45;;;;;;;6.10;5.60;;;6.70;99.90;;;;;;4993593;28;20441;-68
2022/11/28 08:16:13;;;;;;;9.17;6.13;;;6.70;99.90;;;;;;4992204;28;20470;-68
2022/11/28 08:18:39;;;;;;;12.90;6.00;;;6.70;99.90;;;;;;5002837;28;20180;-71
2022/11/28 08:21:27;;;;;;;5.73;5.17;;;6.70;99.90;;;;;;4998783;28;20439;-67
2022/11/28 08:23:57;;;;;;;7.73;5.87;;;6.70;99.90;;;;;;4995757;28;20446;-68
2022/11/28 08:26:24;;;;;;;7.27;6.20;;;6.70;99.90;;;;;;5003225;28;20477;-67
2022/11/28 08:28:52;;;;;;;9.80;5.70;;;6.70;99.90;;;;;;5010770;28;20448;-68
2022/11/28 08:31:23;;;;;;;7.03;5.70;;;6.80;99.90;;;;;;4999142;28;20467;-67
2022/11/28 08:33:49;;;;;;;15.87;8.57;;;6.90;99.90;;;;;;4997973;28;20445;-67
2022/11/28 08:36:16;;;;;;;8.87;5.90;;;6.80;99.90;;;;;;4997664;28;20473;-68
2022/11/28 08:38:45;;;;;;;10.30;6.23;;;6.90;99.90;;;;;;4994486;28;20443;-68
2022/11/28 08:41:16;;;;;;;11.20;6.20;;;6.90;99.90;;;;;;4996582;28;20437;-68
2022/11/28 08:43:41;;;;;;;7.93;5.73;;;6.90;99.90;;;;;;5004917;28;20468;-68
2022/11/28 08:46:16;;;;;;;11.43;6.50;;;6.90;99.90;;;;;;4995589;28;20438;-68
2022/11/28 08:48:42;;;;;;;11.10;6.70;;;7.00;99.90;;;;;;4997526;28;20186;-68
2022/11/28 08:51:12;;;;;;;7.00;5.67;;;7.10;99.90;;;;;;5000140;28;21009;-68
2022/11/28 08:53:37;;;;;;;8.33;5.80;;;7.30;99.90;;;;;;4993232;28;20497;-68
2022/11/28 08:56:03;;;;;;;7.83;5.90;;;7.40;99.90;;;;;;5003858;28;20465;-68
2022/11/28 08:58:29;;;;;;;6.50;5.30;;;7.50;99.90;;;;;;5001118;28;20226;-68
2022/11/28 09:00:54;;;;;;;6.53;5.47;;;7.60;99.90;;;;;;4994695;28;20484;-68
2022/11/28 09:03:20;;;;;;;8.17;6.20;;;7.70;99.90;;;;;;4958493;28;20486;-68
2022/11/28 09:05:46;;;;;;;8.40;6.13;;;7.80;99.90;;;;;;4960814;28;20172;-67
2022/11/28 09:08:13;;;;;;;6.90;5.70;;;7.90;99.90;;;;;;4991308;28;20339;-68
2022/11/28 09:10:40;;;;;;;11.40;7.00;;;8.00;99.90;;;;;;4986124;28;20566;-68
2022/11/28 09:13:07;;;;;;;6.67;5.73;;;8.10;99.90;;;;;;4987650;28;20486;-67
2022/11/28 09:15:34;;;;;;;6.63;5.60;;;8.00;99.90;;;;;;5003134;28;20939;-67
2022/11/28 09:17:59;;;;;;;6.37;4.90;;;8.10;99.90;;;;;;4991922;28;20825;-67
2022/11/28 09:20:25;;;;;;;9.80;5.80;;;8.20;99.90;;;;;;4996721;28;20452;-68
2022/11/28 09:22:51;;;;;;;13.50;10.50;;;8.30;99.90;;;;;;4988879;28;20283;-67
2022/11/28 09:25:16;;;;;;;14.43;12.07;;;8.40;99.90;;;;;;5001597;28;20167;-68
2022/11/28 09:27:42;;;;;;;6.57;5.87;;;8.50;99.90;;;;;;4990493;28;20191;-68
2022/11/28 09:30:08;;;;;;;8.47;6.90;;;8.50;99.90;;;;;;4996994;28;20241;-68
2022/11/28 09:32:34;;;;;;;7.00;4.93;;;8.50;99.90;;;;;;4996191;28;20992;-68
2022/11/28 09:34:59;;;;;;;5.07;4.57;;;8.60;99.90;;;;;;4998399;28;20434;-68
2022/11/28 09:37:27;;;;;;;6.30;4.70;;;8.60;99.90;;;;;;5000812;28;20608;-67
2022/11/28 09:39:53;;;;;;;7.23;5.03;;;8.70;99.90;;;;;;4994660;28;20711;-68
2022/11/28 09:42:42;;;;;;;6.90;4.83;;;8.70;99.90;;;;;;4988133;28;20475;-68
2022/11/28 09:45:20;;;;;;;7.43;5.40;;;8.80;99.90;;;;;;4986296;28;20176;-68
2022/11/28 09:47:52;;;;;;;10.13;5.10;;;8.80;99.90;;;;;;5001988;28;20537;-68
2022/11/28 09:50:24;;;;;;;9.23;6.00;;;8.80;99.90;;;;;;4998102;28;20438;-68
2022/11/28 09:53:00;;;;;;;14.70;6.67;;;8.90;99.90;;;;;;4983706;28;20531;-67
2022/11/28 09:55:30;;;;;;;11.13;6.57;;;8.90;99.90;;;;;;4993746;28;20430;-68
2022/11/28 09:57:56;;;;;;;8.00;5.93;;;8.90;99.90;;;;;;4992496;28;20437;-67
2022/11/28 10:00:31;;;;;;;14.10;7.27;;;8.80;99.90;;;;;;4986243;28;20454;-68
2022/11/28 10:03:24;;;;;;;11.87;7.37;;;8.60;99.90;;;;;;4982224;28;20197;-68
2022/11/28 10:06:17;;;;;;;6.10;5.50;;;8.60;99.90;;;;;;4993462;28;20478;-68
2022/11/28 10:08:52;;;;;;;7.93;6.83;;;8.40;99.90;;;;;;4992990;28;20518;-68
2022/11/28 10:11:46;;;;;;;8.53;6.40;;;8.20;99.90;;;;;;4995255;28;20472;-68
2022/11/28 10:14:37;;;;;;;8.57;6.90;;;8.10;99.90;;;;;;4994062;28;20431;-67
2022/11/28 10:17:35;;;;;;;10.13;6.17;;;8.10;99.90;;;;;;4994759;28;20469;-68
2022/11/28 10:20:18;;;;;;;7.73;6.00;;;8.20;99.90;;;;;;4986618;28;20518;-68
2022/11/28 10:23:16;;;;;;;7.40;5.97;;;8.40;99.90;;;;;;4983469;28;20490;-67
2022/11/28 10:25:57;;;;;;;9.77;6.43;;;8.50;99.90;;;;;;4996938;28;20458;-68
2022/11/28 10:28:33;;;;;;;7.70;5.70;;;8.70;99.90;;;;;;5002201;28;20446;-67
2022/11/28 10:31:06;;;;;;;6.60;5.40;;;8.60;99.90;;;;;;4986593;28;20438;-67
2022/11/28 10:33:50;;;;;;;9.60;7.30;;;8.60;99.90;;;;;;4993471;28;20434;-67
2022/11/28 10:36:26;;;;;;;7.50;6.80;;;8.60;99.90;;;;;;4993147;28;20825;-67
2022/11/28 10:38:52;;;;;;;10.03;8.47;;;8.50;99.90;;;;;;4999749;28;20481;-68
2022/11/28 10:41:30;;;;;;;7.83;6.30;;;8.60;99.90;;;;;;4985830;28;20455;-67
2022/11/28 10:43:58;;;;;;;10.10;6.00;;;8.80;99.90;;;;;;4995807;28;20805;-67
2022/11/28 10:46:34;;;;;;;7.77;5.60;;;8.80;99.90;;;;;;4994296;28;20843;-67
2022/11/28 10:49:19;;;;;;;11.73;5.87;;;8.80;99.90;;;;;;4986470;28;20541;-67
2022/11/28 10:51:52;;;;;;;9.33;6.30;;;8.70;99.90;;;;;;4987157;28;20458;-67
2022/11/28 10:54:23;;;;;;;9.13;5.70;;;8.70;99.90;;;;;;4994713;28;20481;-67
2022/11/28 10:57:04;;;;;;;12.73;7.00;;;8.70;99.90;;;;;;4990003;28;20857;-67
2022/11/28 10:59:58;;;;;;;9.57;6.43;;;8.80;99.90;;;;;;4994592;28;20438;-67
2022/11/28 11:02:38;;;;;;;10.67;7.93;;;8.80;99.90;;;;;;4987375;28;20458;-67
2022/11/28 11:05:05;;;;;;;8.43;6.90;;;9.00;99.90;;;;;;4999521;28;20504;-67
2022/11/28 11:07:33;;;;;;;11.37;8.07;;;8.90;99.90;;;;;;4987467;28;20446;-67
2022/11/28 11:10:21;;;;;;;11.67;8.30;;;8.90;99.90;;;;;;4997052;28;21793;-67
2022/11/28 11:12:51;;;;;;;11.97;9.47;;;8.70;99.90;;;;;;4992680;28;20585;-67
2022/11/28 11:15:28;;;;;;;12.00;9.30;;;8.50;99.90;;;;;;4997612;28;20439;-68
2022/11/28 11:17:54;;;;;;;11.70;10.17;;;8.30;99.90;;;;;;4985048;28;20910;-68
2022/11/28 11:20:33;;;;;;;14.40;10.33;;;8.10;99.90;;;;;;4992850;28;20586;-67
2022/11/28 11:23:01;;;;;;;17.10;9.60;;;8.20;99.90;;;;;;4973406;28;20826;-69
2022/11/28 11:25:31;;;;;;;13.23;9.60;;;8.30;99.90;;;;;;4989057;28;20814;-68
2022/11/28 11:28:03;;;;;;;17.20;10.70;;;8.40;99.90;;;;;;4987926;28;20530;-67
2022/11/28 11:30:37;;;;;;;10.77;9.10;;;8.50;99.90;;;;;;4990623;28;20955;-67
2022/11/28 11:33:05;;;;;;;14.87;11.00;;;8.50;99.90;;;;;;4981146;28;20481;-68
2022/11/28 11:35:41;;;;;;;19.73;10.63;;;8.50;99.90;;;;;;4987451;28;20446;-67
2022/11/28 11:38:27;;;;;;;11.83;10.57;;;8.50;99.90;;;;;;4988783;28;20470;-68
2022/11/28 11:40:52;;;;;;;12.33;10.70;;;8.40;99.90;;;;;;4993490;28;20450;-67
2022/11/28 11:43:28;;;;;;;11.27;10.20;;;8.40;99.90;;;;;;4986039;28;20461;-67
2022/11/28 11:46:08;;;;;;;11.60;10.50;;;8.30;99.90;;;;;;4989945;28;20283;-67
2022/11/28 11:48:53;;;;;;;14.73;11.27;;;8.20;99.90;;;;;;4989979;28;20438;-68
2022/11/28 11:51:28;;;;;;;12.83;10.90;;;8.20;99.90;;;;;;4990537;28;20976;-68
2022/11/28 11:54:00;;;;;;;17.97;11.63;;;8.10;99.90;;;;;;4977500;28;22342;-67
2022/11/28 11:56:29;;;;;;;12.80;11.30;;;8.20;99.90;;;;;;4990686;28;20474;-67
2022/11/28 11:58:57;;;;;;;12.40;11.20;;;8.10;99.90;;;;;;4990741;28;20443;-67
2022/11/28 12:01:24;;;;;;;18.17;12.10;;;8.00;99.90;;;;;;4992789;28;20466;-68
2022/11/28 12:04:05;;;;;;;19.03;12.60;;;8.00;99.90;;;;;;4982818;28;20808;-67
2022/11/28 12:06:38;;;;;;;15.33;12.07;;;8.00;99.90;;;;;;4992603;28;20438;-68
2022/11/28 12:09:33;;;;;;;16.30;11.50;;;8.00;99.90;;;;;;4986377;28;20454;-67
2022/11/28 12:12:06;;;;;;;13.77;11.00;;;8.00;99.90;;;;;;4979911;28;21112;-68
2022/11/28 12:14:35;;;;;;;15.50;11.60;;;8.00;99.90;;;;;;4990263;28;20446;-68
2022/11/28 12:17:25;;;;;;;13.27;9.33;;;8.10;99.90;;;;;;4991097;28;20466;-67
2022/11/28 12:20:31;;;;;;;9.50;7.53;;;8.10;99.90;;;;;;4998961;28;20954;-67
2022/11/28 12:23:13;;;;;;;10.43;8.87;;;8.20;99.90;;;;;;4983822;28;20462;-67
2022/11/28 12:25:54;;;;;;;10.03;8.43;;;8.20;99.90;;;;;;4989008;28;20448;-67
2022/11/28 12:28:49;;;;;;;9.67;8.00;;;8.20;99.90;;;;;;4990845;28;20462;-67
2022/11/28 12:31:21;;;;;;;8.23;7.40;;;8.30;99.90;;;;;;4955243;28;20477;-67
2022/11/28 12:33:59;;;;;;;10.73;8.53;;;8.40;99.90;;;;;;4981151;28;20985;-67
2022/11/28 12:36:27;;;;;;;8.77;7.87;;;8.50;99.90;;;;;;4997271;28;20876;-67
2022/11/28 12:39:16;;;;;;;10.37;8.50;;;8.60;99.90;;;;;;4993125;28;20448;-67
2022/11/28 12:42:14;;;;;;;9.73;7.80;;;8.60;99.90;;;;;;4995749;28;20999;-67
2022/11/28 12:44:58;;;;;;;7.60;6.90;;;8.60;99.90;;;;;;4985328;28;20537;-67
2022/11/28 12:47:34;;;;;;;8.13;6.63;;;8.60;99.90;;;;;;5001861;28;20509;-67
2022/11/28 12:50:17;;;;;;;9.37;7.73;;;8.60;99.90;;;;;;4987141;28;20443;-67
2022/11/28 12:52:47;;;;;;;9.17;7.53;;;8.60;99.90;;;;;;4988261;28;20470;-67
2022/11/28 12:55:27;;;;;;;12.57;8.63;;;8.60;99.90;;;;;;4984767;28;20982;-67
2022/11/28 12:58:04;;;;;;;13.53;7.60;;;8.60;99.90;;;;;;4990841;28;20501;-67
2022/11/28 13:00:29;;;;;;;10.80;7.57;;;8.70;99.90;;;;;;4988727;28;20441;-67
2022/11/28 13:03:09;;;;;;;8.00;7.20;;;8.80;99.90;;;;;;4985082;28;20467;-67
2022/11/28 13:05:47;;;;;;;10.27;7.83;;;8.90;99.90;;;;;;5001341;28;20186;-67
2022/11/28 13:08:35;;;;;;;11.60;6.80;;;9.10;99.90;;;;;;4996379;28;20533;-67
2022/11/28 13:11:24;;;;;;;15.10;7.00;;;9.20;99.90;;;;;;4993834;28;20956;-67
2022/11/28 13:14:04;;;;;;;9.93;6.53;;;9.20;99.90;;;;;;4987772;28;20464;-68